Terminal Aerodrome Forecast
Issued by NWS Wilmington, NC

Home | Current Version | Previous Version | Text Only | Print | Product List | Glossary On
Versions: 1 2 3 4 5 6 7 8 9 10 11 12 13
000
FTUS42 KILM 282326
TAFILM
TAF
KILM 282326Z 2900/2924 22012G20KT P6SM SKC
     FM290100 22008KT P6SM SKC
     FM291200 25011KT P6SM SKC
     FM291600 25012G18KT P6SM SKC
     FM292300 22011KT P6SM FEW250=

USA.gov is the U.S. government's official web portal to all federal, state and local government web resources and services.